sensor_id;sensor_type;location;lat;lon;timestamp;P1;durP1;ratioP1;P2;durP2;ratioP2
5519;SDS011;2782;52.362;10.012;2022-08-19T00:00:10;9.33;;;5.40;;
5519;SDS011;2782;52.362;10.012;2022-08-19T00:06:54;7.77;;;5.43;;
5519;SDS011;2782;52.362;10.012;2022-08-19T00:13:37;9.70;;;5.63;;
5519;SDS011;2782;52.362;10.012;2022-08-19T00:20:19;7.83;;;5.27;;
5519;SDS011;2782;52.362;10.012;2022-08-19T00:27:02;7.67;;;5.50;;
5519;SDS011;2782;52.362;10.012;2022-08-19T00:33:45;8.43;;;5.47;;
5519;SDS011;2782;52.362;10.012;2022-08-19T00:40:27;7.23;;;5.20;;
5519;SDS011;2782;52.362;10.012;2022-08-19T00:47:10;6.70;;;5.50;;
5519;SDS011;2782;52.362;10.012;2022-08-19T00:53:53;10.17;;;5.93;;
5519;SDS011;2782;52.362;10.012;2022-08-19T01:00:37;9.73;;;5.73;;
5519;SDS011;2782;52.362;10.012;2022-08-19T01:07:20;12.00;;;6.30;;
5519;SDS011;2782;52.362;10.012;2022-08-19T01:14:03;10.77;;;5.07;;
5519;SDS011;2782;52.362;10.012;2022-08-19T01:20:46;8.07;;;5.30;;
5519;SDS011;2782;52.362;10.012;2022-08-19T01:27:37;12.93;;;5.80;;
5519;SDS011;2782;52.362;10.012;2022-08-19T01:34:20;23.73;;;6.17;;
5519;SDS011;2782;52.362;10.012;2022-08-19T01:41:02;13.20;;;5.77;;
5519;SDS011;2782;52.362;10.012;2022-08-19T01:47:45;10.83;;;5.27;;
5519;SDS011;2782;52.362;10.012;2022-08-19T01:54:27;9.07;;;5.20;;
5519;SDS011;2782;52.362;10.012;2022-08-19T02:01:09;7.47;;;5.60;;
5519;SDS011;2782;52.362;10.012;2022-08-19T02:07:52;9.40;;;5.23;;
5519;SDS011;2782;52.362;10.012;2022-08-19T02:14:34;6.00;;;5.17;;
5519;SDS011;2782;52.362;10.012;2022-08-19T02:21:16;8.50;;;5.10;;
5519;SDS011;2782;52.362;10.012;2022-08-19T02:28:00;6.23;;;4.70;;
5519;SDS011;2782;52.362;10.012;2022-08-19T02:34:41;6.90;;;5.00;;
5519;SDS011;2782;52.362;10.012;2022-08-19T02:41:24;6.37;;;5.17;;
5519;SDS011;2782;52.362;10.012;2022-08-19T02:48:10;7.07;;;5.57;;
5519;SDS011;2782;52.362;10.012;2022-08-19T02:54:52;9.10;;;5.63;;
5519;SDS011;2782;52.362;10.012;2022-08-19T03:01:33;6.60;;;5.13;;
5519;SDS011;2782;52.362;10.012;2022-08-19T03:08:16;7.53;;;4.90;;
5519;SDS011;2782;52.362;10.012;2022-08-19T03:14:58;6.70;;;5.63;;
5519;SDS011;2782;52.362;10.012;2022-08-19T03:21:41;7.43;;;5.57;;
5519;SDS011;2782;52.362;10.012;2022-08-19T03:28:25;8.17;;;5.57;;
5519;SDS011;2782;52.362;10.012;2022-08-19T03:35:08;5.87;;;4.80;;
5519;SDS011;2782;52.362;10.012;2022-08-19T03:41:50;7.63;;;5.33;;
5519;SDS011;2782;52.362;10.012;2022-08-19T03:48:38;7.53;;;5.30;;
5519;SDS011;2782;52.362;10.012;2022-08-19T03:55:21;10.60;;;5.43;;
5519;SDS011;2782;52.362;10.012;2022-08-19T04:02:05;12.67;;;6.23;;
5519;SDS011;2782;52.362;10.012;2022-08-19T04:08:51;16.10;;;6.13;;
5519;SDS011;2782;52.362;10.012;2022-08-19T04:15:38;16.73;;;6.40;;
5519;SDS011;2782;52.362;10.012;2022-08-19T04:22:21;9.10;;;5.87;;
5519;SDS011;2782;52.362;10.012;2022-08-19T04:29:06;11.20;;;6.80;;
5519;SDS011;2782;52.362;10.012;2022-08-19T04:35:50;17.20;;;5.90;;
5519;SDS011;2782;52.362;10.012;2022-08-19T04:42:33;8.30;;;5.90;;
5519;SDS011;2782;52.362;10.012;2022-08-19T04:49:22;8.90;;;5.03;;
5519;SDS011;2782;52.362;10.012;2022-08-19T04:56:05;8.00;;;5.07;;
5519;SDS011;2782;52.362;10.012;2022-08-19T05:02:48;12.40;;;4.90;;
5519;SDS011;2782;52.362;10.012;2022-08-19T05:09:31;8.07;;;5.30;;
5519;SDS011;2782;52.362;10.012;2022-08-19T05:16:13;10.40;;;5.03;;
5519;SDS011;2782;52.362;10.012;2022-08-19T05:22:55;7.17;;;5.43;;
5519;SDS011;2782;52.362;10.012;2022-08-19T05:29:38;10.03;;;5.10;;
5519;SDS011;2782;52.362;10.012;2022-08-19T05:36:20;13.00;;;4.80;;
5519;SDS011;2782;52.362;10.012;2022-08-19T05:43:01;10.33;;;5.50;;
5519;SDS011;2782;52.362;10.012;2022-08-19T05:49:45;13.80;;;4.10;;
5519;SDS011;2782;52.362;10.012;2022-08-19T05:56:26;8.40;;;5.23;;
5519;SDS011;2782;52.362;10.012;2022-08-19T06:03:10;10.23;;;5.73;;
5519;SDS011;2782;52.362;10.012;2022-08-19T06:09:53;14.60;;;6.40;;
5519;SDS011;2782;52.362;10.012;2022-08-19T06:16:34;8.87;;;5.47;;
5519;SDS011;2782;52.362;10.012;2022-08-19T06:23:18;11.93;;;6.77;;
5519;SDS011;2782;52.362;10.012;2022-08-19T06:30:01;8.70;;;6.50;;
5519;SDS011;2782;52.362;10.012;2022-08-19T06:36:44;8.50;;;5.67;;
5519;SDS011;2782;52.362;10.012;2022-08-19T06:43:26;10.30;;;4.57;;
5519;SDS011;2782;52.362;10.012;2022-08-19T06:50:09;11.47;;;5.20;;
5519;SDS011;2782;52.362;10.012;2022-08-19T06:56:52;7.57;;;3.70;;
5519;SDS011;2782;52.362;10.012;2022-08-19T07:03:34;5.93;;;3.03;;
5519;SDS011;2782;52.362;10.012;2022-08-19T07:10:19;6.53;;;3.10;;
5519;SDS011;2782;52.362;10.012;2022-08-19T07:17:01;6.40;;;3.10;;
5519;SDS011;2782;52.362;10.012;2022-08-19T07:23:42;7.77;;;2.70;;
5519;SDS011;2782;52.362;10.012;2022-08-19T07:30:26;4.67;;;2.50;;
5519;SDS011;2782;52.362;10.012;2022-08-19T07:37:07;6.00;;;2.73;;
5519;SDS011;2782;52.362;10.012;2022-08-19T07:43:49;6.47;;;3.00;;
5519;SDS011;2782;52.362;10.012;2022-08-19T07:50:33;3.13;;;2.37;;
5519;SDS011;2782;52.362;10.012;2022-08-19T07:57:15;4.90;;;2.73;;
5519;SDS011;2782;52.362;10.012;2022-08-19T08:03:58;3.57;;;2.87;;
5519;SDS011;2782;52.362;10.012;2022-08-19T08:10:59;5.40;;;3.27;;
5519;SDS011;2782;52.362;10.012;2022-08-19T08:17:41;5.47;;;2.83;;
5519;SDS011;2782;52.362;10.012;2022-08-19T08:24:25;2.83;;;2.57;;
5519;SDS011;2782;52.362;10.012;2022-08-19T08:31:09;2.57;;;2.37;;
5519;SDS011;2782;52.362;10.012;2022-08-19T08:37:52;4.00;;;2.70;;
5519;SDS011;2782;52.362;10.012;2022-08-19T08:44:38;3.03;;;2.73;;
5519;SDS011;2782;52.362;10.012;2022-08-19T08:51:27;4.80;;;3.00;;
5519;SDS011;2782;52.362;10.012;2022-08-19T08:58:13;3.97;;;3.50;;
5519;SDS011;2782;52.362;10.012;2022-08-19T09:05:02;3.43;;;2.87;;
5519;SDS011;2782;52.362;10.012;2022-08-19T09:11:50;5.13;;;2.77;;
5519;SDS011;2782;52.362;10.012;2022-08-19T09:18:38;4.60;;;3.40;;
5519;SDS011;2782;52.362;10.012;2022-08-19T09:25:22;3.40;;;3.10;;
5519;SDS011;2782;52.362;10.012;2022-08-19T09:32:05;2.77;;;2.57;;
5519;SDS011;2782;52.362;10.012;2022-08-19T09:38:47;2.60;;;2.20;;
5519;SDS011;2782;52.362;10.012;2022-08-19T09:45:29;5.77;;;3.00;;
5519;SDS011;2782;52.362;10.012;2022-08-19T09:52:12;3.83;;;3.00;;
5519;SDS011;2782;52.362;10.012;2022-08-19T09:58:57;3.30;;;3.00;;
5519;SDS011;2782;52.362;10.012;2022-08-19T10:05:39;4.63;;;3.57;;
5519;SDS011;2782;52.362;10.012;2022-08-19T10:12:31;6.60;;;3.80;;
5519;SDS011;2782;52.362;10.012;2022-08-19T10:19:13;4.63;;;3.50;;
5519;SDS011;2782;52.362;10.012;2022-08-19T10:25:54;3.70;;;3.37;;
5519;SDS011;2782;52.362;10.012;2022-08-19T10:32:42;5.23;;;4.00;;
5519;SDS011;2782;52.362;10.012;2022-08-19T10:39:25;3.97;;;3.53;;
5519;SDS011;2782;52.362;10.012;2022-08-19T10:46:08;4.33;;;3.43;;
5519;SDS011;2782;52.362;10.012;2022-08-19T10:52:53;4.07;;;3.67;;
5519;SDS011;2782;52.362;10.012;2022-08-19T10:59:35;4.00;;;3.70;;
5519;SDS011;2782;52.362;10.012;2022-08-19T11:06:17;5.53;;;4.20;;
5519;SDS011;2782;52.362;10.012;2022-08-19T11:13:02;6.67;;;4.87;;
5519;SDS011;2782;52.362;10.012;2022-08-19T11:19:43;5.70;;;4.40;;
5519;SDS011;2782;52.362;10.012;2022-08-19T11:26:27;3.97;;;3.67;;
5519;SDS011;2782;52.362;10.012;2022-08-19T11:33:11;4.57;;;4.17;;
5519;SDS011;2782;52.362;10.012;2022-08-19T11:39:52;10.50;;;4.77;;
5519;SDS011;2782;52.362;10.012;2022-08-19T11:46:34;4.63;;;4.23;;
5519;SDS011;2782;52.362;10.012;2022-08-19T11:53:19;5.37;;;3.93;;
5519;SDS011;2782;52.362;10.012;2022-08-19T12:00:01;6.57;;;4.70;;
5519;SDS011;2782;52.362;10.012;2022-08-19T12:06:44;4.17;;;3.80;;
5519;SDS011;2782;52.362;10.012;2022-08-19T12:13:27;3.70;;;3.40;;
5519;SDS011;2782;52.362;10.012;2022-08-19T12:20:10;3.63;;;3.33;;
5519;SDS011;2782;52.362;10.012;2022-08-19T12:26:55;4.90;;;3.60;;
5519;SDS011;2782;52.362;10.012;2022-08-19T12:33:40;3.70;;;3.30;;
5519;SDS011;2782;52.362;10.012;2022-08-19T12:40:23;3.37;;;3.17;;
5519;SDS011;2782;52.362;10.012;2022-08-19T12:47:05;3.63;;;2.80;;
5519;SDS011;2782;52.362;10.012;2022-08-19T12:53:48;3.33;;;3.13;;
5519;SDS011;2782;52.362;10.012;2022-08-19T13:00:30;2.90;;;2.70;;
5519;SDS011;2782;52.362;10.012;2022-08-19T13:07:12;3.10;;;2.90;;
5519;SDS011;2782;52.362;10.012;2022-08-19T13:13:55;4.20;;;2.80;;
5519;SDS011;2782;52.362;10.012;2022-08-19T13:20:37;2.70;;;2.50;;
5519;SDS011;2782;52.362;10.012;2022-08-19T13:27:20;3.00;;;2.80;;
5519;SDS011;2782;52.362;10.012;2022-08-19T13:34:03;2.87;;;2.63;;
5519;SDS011;2782;52.362;10.012;2022-08-19T13:40:45;2.30;;;2.20;;
5519;SDS011;2782;52.362;10.012;2022-08-19T13:47:29;3.10;;;2.80;;
5519;SDS011;2782;52.362;10.012;2022-08-19T13:54:12;2.10;;;2.00;;
5519;SDS011;2782;52.362;10.012;2022-08-19T14:00:54;2.33;;;2.23;;
5519;SDS011;2782;52.362;10.012;2022-08-19T14:07:35;2.20;;;2.10;;
5519;SDS011;2782;52.362;10.012;2022-08-19T14:14:18;2.53;;;2.33;;
5519;SDS011;2782;52.362;10.012;2022-08-19T14:21:00;2.20;;;2.10;;
5519;SDS011;2782;52.362;10.012;2022-08-19T14:27:42;2.63;;;2.43;;
5519;SDS011;2782;52.362;10.012;2022-08-19T14:34:26;2.57;;;2.47;;
5519;SDS011;2782;52.362;10.012;2022-08-19T14:41:08;2.33;;;2.13;;
5519;SDS011;2782;52.362;10.012;2022-08-19T14:47:52;3.10;;;2.73;;
5519;SDS011;2782;52.362;10.012;2022-08-19T14:54:35;4.83;;;2.57;;
5519;SDS011;2782;52.362;10.012;2022-08-19T15:01:17;4.00;;;2.27;;
5519;SDS011;2782;52.362;10.012;2022-08-19T15:08:02;2.20;;;2.00;;
5519;SDS011;2782;52.362;10.012;2022-08-19T15:14:45;5.80;;;2.97;;
5519;SDS011;2782;52.362;10.012;2022-08-19T15:21:30;2.53;;;2.33;;
5519;SDS011;2782;52.362;10.012;2022-08-19T15:28:12;2.93;;;1.93;;
5519;SDS011;2782;52.362;10.012;2022-08-19T15:34:56;2.13;;;1.93;;
5519;SDS011;2782;52.362;10.012;2022-08-19T15:41:38;2.27;;;2.17;;
5519;SDS011;2782;52.362;10.012;2022-08-19T15:48:20;4.03;;;1.97;;
5519;SDS011;2782;52.362;10.012;2022-08-19T15:55:03;1.50;;;1.40;;
5519;SDS011;2782;52.362;10.012;2022-08-19T16:01:46;4.20;;;1.30;;
5519;SDS011;2782;52.362;10.012;2022-08-19T16:08:46;5.57;;;1.50;;
5519;SDS011;2782;52.362;10.012;2022-08-19T16:15:30;1.50;;;1.40;;
5519;SDS011;2782;52.362;10.012;2022-08-19T16:22:12;2.33;;;1.60;;
5519;SDS011;2782;52.362;10.012;2022-08-19T16:28:54;1.67;;;1.23;;
5519;SDS011;2782;52.362;10.012;2022-08-19T16:35:37;1.27;;;1.17;;
5519;SDS011;2782;52.362;10.012;2022-08-19T16:42:19;1.03;;;1.03;;
5519;SDS011;2782;52.362;10.012;2022-08-19T16:49:01;1.17;;;1.07;;
5519;SDS011;2782;52.362;10.012;2022-08-19T16:55:43;3.80;;;1.53;;
5519;SDS011;2782;52.362;10.012;2022-08-19T17:02:29;3.03;;;1.23;;
5519;SDS011;2782;52.362;10.012;2022-08-19T17:09:12;4.83;;;1.57;;
5519;SDS011;2782;52.362;10.012;2022-08-19T17:15:56;13.55;;;5.00;;
5519;SDS011;2782;52.362;10.012;2022-08-19T17:22:40;26.13;;;11.60;;
5519;SDS011;2782;52.362;10.012;2022-08-19T17:29:24;19.40;;;8.30;;
5519;SDS011;2782;52.362;10.012;2022-08-19T17:36:07;14.90;;;6.53;;
5519;SDS011;2782;52.362;10.012;2022-08-19T17:42:49;8.10;;;3.13;;
5519;SDS011;2782;52.362;10.012;2022-08-19T17:49:33;9.40;;;3.00;;
5519;SDS011;2782;52.362;10.012;2022-08-19T17:56:17;4.50;;;1.47;;
5519;SDS011;2782;52.362;10.012;2022-08-19T18:03:00;2.30;;;1.50;;
5519;SDS011;2782;52.362;10.012;2022-08-19T18:09:43;5.20;;;1.20;;
5519;SDS011;2782;52.362;10.012;2022-08-19T18:16:28;5.30;;;1.27;;
5519;SDS011;2782;52.362;10.012;2022-08-19T18:23:11;1.57;;;0.80;;
5519;SDS011;2782;52.362;10.012;2022-08-19T18:29:53;3.40;;;1.20;;
5519;SDS011;2782;52.362;10.012;2022-08-19T18:36:39;2.13;;;1.40;;
5519;SDS011;2782;52.362;10.012;2022-08-19T18:43:21;5.50;;;1.20;;
5519;SDS011;2782;52.362;10.012;2022-08-19T18:50:20;4.20;;;1.20;;
5519;SDS011;2782;52.362;10.012;2022-08-19T18:57:03;3.37;;;0.87;;
5519;SDS011;2782;52.362;10.012;2022-08-19T19:03:46;14.20;;;1.30;;
5519;SDS011;2782;52.362;10.012;2022-08-19T19:10:32;3.73;;;0.83;;
5519;SDS011;2782;52.362;10.012;2022-08-19T19:17:16;12.80;;;1.07;;
5519;SDS011;2782;52.362;10.012;2022-08-19T19:24:04;1.33;;;1.20;;
5519;SDS011;2782;52.362;10.012;2022-08-19T19:30:47;1.33;;;0.90;;
5519;SDS011;2782;52.362;10.012;2022-08-19T19:37:31;2.90;;;0.97;;
5519;SDS011;2782;52.362;10.012;2022-08-19T19:44:12;5.17;;;1.50;;
5519;SDS011;2782;52.362;10.012;2022-08-19T19:50:54;2.50;;;0.90;;
5519;SDS011;2782;52.362;10.012;2022-08-19T19:57:37;2.40;;;0.97;;
5519;SDS011;2782;52.362;10.012;2022-08-19T20:04:19;2.70;;;1.80;;
5519;SDS011;2782;52.362;10.012;2022-08-19T20:11:01;7.43;;;1.47;;
5519;SDS011;2782;52.362;10.012;2022-08-19T20:17:45;3.17;;;1.13;;
5519;SDS011;2782;52.362;10.012;2022-08-19T20:24:28;2.43;;;1.07;;
5519;SDS011;2782;52.362;10.012;2022-08-19T20:31:11;1.30;;;1.20;;
5519;SDS011;2782;52.362;10.012;2022-08-19T20:37:54;1.73;;;1.20;;
5519;SDS011;2782;52.362;10.012;2022-08-19T20:44:35;5.40;;;1.70;;
5519;SDS011;2782;52.362;10.012;2022-08-19T20:51:17;4.60;;;1.70;;
5519;SDS011;2782;52.362;10.012;2022-08-19T20:58:00;3.83;;;1.70;;
5519;SDS011;2782;52.362;10.012;2022-08-19T21:04:42;1.47;;;1.30;;
5519;SDS011;2782;52.362;10.012;2022-08-19T21:11:24;4.90;;;1.73;;
5519;SDS011;2782;52.362;10.012;2022-08-19T21:18:07;2.90;;;1.20;;
5519;SDS011;2782;52.362;10.012;2022-08-19T21:24:49;2.90;;;1.20;;
5519;SDS011;2782;52.362;10.012;2022-08-19T21:31:31;3.37;;;1.60;;
5519;SDS011;2782;52.362;10.012;2022-08-19T21:38:13;3.03;;;1.33;;
5519;SDS011;2782;52.362;10.012;2022-08-19T21:44:55;3.67;;;1.33;;
5519;SDS011;2782;52.362;10.012;2022-08-19T21:51:37;2.03;;;1.67;;
5519;SDS011;2782;52.362;10.012;2022-08-19T21:58:20;2.13;;;1.50;;
5519;SDS011;2782;52.362;10.012;2022-08-19T22:05:02;2.93;;;1.77;;
5519;SDS011;2782;52.362;10.012;2022-08-19T22:11:44;2.57;;;1.30;;
5519;SDS011;2782;52.362;10.012;2022-08-19T22:18:27;1.53;;;1.37;;
5519;SDS011;2782;52.362;10.012;2022-08-19T22:25:12;1.40;;;1.30;;
5519;SDS011;2782;52.362;10.012;2022-08-19T22:31:55;6.03;;;1.30;;
5519;SDS011;2782;52.362;10.012;2022-08-19T22:38:37;3.47;;;1.57;;
5519;SDS011;2782;52.362;10.012;2022-08-19T22:45:19;6.37;;;1.20;;
5519;SDS011;2782;52.362;10.012;2022-08-19T22:52:01;3.27;;;1.37;;
5519;SDS011;2782;52.362;10.012;2022-08-19T22:58:58;3.17;;;1.50;;
5519;SDS011;2782;52.362;10.012;2022-08-19T23:05:42;2.43;;;1.37;;
5519;SDS011;2782;52.362;10.012;2022-08-19T23:12:24;7.30;;;1.30;;
5519;SDS011;2782;52.362;10.012;2022-08-19T23:19:09;1.63;;;1.53;;
5519;SDS011;2782;52.362;10.012;2022-08-19T23:25:52;1.50;;;1.40;;
5519;SDS011;2782;52.362;10.012;2022-08-19T23:32:35;2.20;;;1.50;;
5519;SDS011;2782;52.362;10.012;2022-08-19T23:39:18;2.97;;;1.00;;
5519;SDS011;2782;52.362;10.012;2022-08-19T23:46:01;2.50;;;1.30;;
5519;SDS011;2782;52.362;10.012;2022-08-19T23:52:46;2.00;;;1.80;;
5519;SDS011;2782;52.362;10.012;2022-08-19T23:59:30;2.23;;;1.37;;
